sensor_id;sensor_type;location;lat;lon;timestamp;P1;durP1;ratioP1;P2;durP2;ratioP2
5379;SDS011;2713;42.680;23.310;2022-09-02T00:01:18;21.77;;;16.93;;
5379;SDS011;2713;42.680;23.310;2022-09-02T00:03:48;21.47;;;16.93;;
5379;SDS011;2713;42.680;23.310;2022-09-02T00:06:15;20.73;;;17.10;;
5379;SDS011;2713;42.680;23.310;2022-09-02T00:08:43;16.77;;;14.97;;
5379;SDS011;2713;42.680;23.310;2022-09-02T00:11:11;19.33;;;17.30;;
5379;SDS011;2713;42.680;23.310;2022-09-02T00:13:39;21.80;;;18.90;;
5379;SDS011;2713;42.680;23.310;2022-09-02T00:16:08;20.17;;;17.87;;
5379;SDS011;2713;42.680;23.310;2022-09-02T00:18:36;22.60;;;18.60;;
5379;SDS011;2713;42.680;23.310;2022-09-02T00:21:03;20.07;;;17.93;;
5379;SDS011;2713;42.680;23.310;2022-09-02T00:23:30;21.43;;;17.83;;
5379;SDS011;2713;42.680;23.310;2022-09-02T00:25:58;20.27;;;16.30;;
5379;SDS011;2713;42.680;23.310;2022-09-02T00:28:25;19.80;;;16.47;;
5379;SDS011;2713;42.680;23.310;2022-09-02T00:30:51;18.40;;;16.50;;
5379;SDS011;2713;42.680;23.310;2022-09-02T00:33:20;17.17;;;15.37;;
5379;SDS011;2713;42.680;23.310;2022-09-02T00:35:48;18.97;;;16.27;;
5379;SDS011;2713;42.680;23.310;2022-09-02T00:38:15;21.30;;;17.00;;
5379;SDS011;2713;42.680;23.310;2022-09-02T00:40:43;19.40;;;15.67;;
5379;SDS011;2713;42.680;23.310;2022-09-02T00:43:11;17.50;;;15.60;;
5379;SDS011;2713;42.680;23.310;2022-09-02T00:45:47;20.93;;;16.53;;
5379;SDS011;2713;42.680;23.310;2022-09-02T00:48:17;17.43;;;15.50;;
5379;SDS011;2713;42.680;23.310;2022-09-02T00:51:03;19.87;;;16.43;;
5379;SDS011;2713;42.680;23.310;2022-09-02T00:53:37;17.97;;;16.03;;
5379;SDS011;2713;42.680;23.310;2022-09-02T00:56:06;19.43;;;16.33;;
5379;SDS011;2713;42.680;23.310;2022-09-02T00:58:38;17.47;;;15.63;;
5379;SDS011;2713;42.680;23.310;2022-09-02T01:01:07;17.50;;;15.80;;
5379;SDS011;2713;42.680;23.310;2022-09-02T01:03:35;18.40;;;16.53;;
5379;SDS011;2713;42.680;23.310;2022-09-02T01:06:03;18.67;;;16.63;;
5379;SDS011;2713;42.680;23.310;2022-09-02T01:08:31;18.77;;;15.70;;
5379;SDS011;2713;42.680;23.310;2022-09-02T01:11:01;17.87;;;16.10;;
5379;SDS011;2713;42.680;23.310;2022-09-02T01:13:30;19.40;;;16.57;;
5379;SDS011;2713;42.680;23.310;2022-09-02T01:16:03;17.33;;;15.50;;
5379;SDS011;2713;42.680;23.310;2022-09-02T01:18:35;18.13;;;16.27;;
5379;SDS011;2713;42.680;23.310;2022-09-02T01:21:04;18.33;;;16.17;;
5379;SDS011;2713;42.680;23.310;2022-09-02T01:23:33;18.10;;;16.20;;
5379;SDS011;2713;42.680;23.310;2022-09-02T01:26:03;19.60;;;16.30;;
5379;SDS011;2713;42.680;23.310;2022-09-02T01:28:31;20.80;;;17.07;;
5379;SDS011;2713;42.680;23.310;2022-09-02T01:30:59;18.60;;;15.70;;
5379;SDS011;2713;42.680;23.310;2022-09-02T01:33:26;17.43;;;15.53;;
5379;SDS011;2713;42.680;23.310;2022-09-02T01:35:54;17.37;;;14.77;;
5379;SDS011;2713;42.680;23.310;2022-09-02T01:38:23;16.13;;;14.53;;
5379;SDS011;2713;42.680;23.310;2022-09-02T01:40:52;15.43;;;13.83;;
5379;SDS011;2713;42.680;23.310;2022-09-02T01:43:21;12.50;;;11.20;;
5379;SDS011;2713;42.680;23.310;2022-09-02T01:45:50;9.83;;;7.90;;
5379;SDS011;2713;42.680;23.310;2022-09-02T01:48:21;8.20;;;7.40;;
5379;SDS011;2713;42.680;23.310;2022-09-02T01:50:51;8.43;;;6.60;;
5379;SDS011;2713;42.680;23.310;2022-09-02T01:53:20;6.40;;;5.80;;
5379;SDS011;2713;42.680;23.310;2022-09-02T01:55:47;6.27;;;5.77;;
5379;SDS011;2713;42.680;23.310;2022-09-02T01:58:15;5.80;;;5.30;;
5379;SDS011;2713;42.680;23.310;2022-09-02T02:00:43;6.50;;;4.90;;
5379;SDS011;2713;42.680;23.310;2022-09-02T02:03:10;4.80;;;4.33;;
5379;SDS011;2713;42.680;23.310;2022-09-02T02:05:37;5.40;;;4.90;;
5379;SDS011;2713;42.680;23.310;2022-09-02T02:08:05;4.63;;;4.23;;
5379;SDS011;2713;42.680;23.310;2022-09-02T02:10:32;5.20;;;4.53;;
5379;SDS011;2713;42.680;23.310;2022-09-02T02:13:00;5.20;;;4.70;;
5379;SDS011;2713;42.680;23.310;2022-09-02T02:15:31;5.77;;;5.20;;
5379;SDS011;2713;42.680;23.310;2022-09-02T02:17:58;5.70;;;5.20;;
5379;SDS011;2713;42.680;23.310;2022-09-02T02:20:25;8.43;;;6.70;;
5379;SDS011;2713;42.680;23.310;2022-09-02T02:22:52;11.00;;;8.93;;
5379;SDS011;2713;42.680;23.310;2022-09-02T02:25:19;6.70;;;6.00;;
5379;SDS011;2713;42.680;23.310;2022-09-02T02:27:49;7.40;;;6.67;;
5379;SDS011;2713;42.680;23.310;2022-09-02T02:30:16;6.73;;;6.13;;
5379;SDS011;2713;42.680;23.310;2022-09-02T02:32:46;8.30;;;7.50;;
5379;SDS011;2713;42.680;23.310;2022-09-02T02:35:16;9.67;;;7.70;;
5379;SDS011;2713;42.680;23.310;2022-09-02T02:37:44;5.03;;;4.53;;
5379;SDS011;2713;42.680;23.310;2022-09-02T02:40:13;5.57;;;5.07;;
5379;SDS011;2713;42.680;23.310;2022-09-02T02:42:41;6.77;;;6.07;;
5379;SDS011;2713;42.680;23.310;2022-09-02T02:45:08;5.20;;;4.67;;
5379;SDS011;2713;42.680;23.310;2022-09-02T02:47:37;6.43;;;5.70;;
5379;SDS011;2713;42.680;23.310;2022-09-02T02:50:07;7.83;;;5.90;;
5379;SDS011;2713;42.680;23.310;2022-09-02T02:52:37;9.27;;;6.40;;
5379;SDS011;2713;42.680;23.310;2022-09-02T02:55:05;6.57;;;5.97;;
5379;SDS011;2713;42.680;23.310;2022-09-02T02:57:33;6.53;;;5.90;;
5379;SDS011;2713;42.680;23.310;2022-09-02T03:00:05;7.40;;;6.73;;
5379;SDS011;2713;42.680;23.310;2022-09-02T03:02:33;6.30;;;5.70;;
5379;SDS011;2713;42.680;23.310;2022-09-02T03:05:01;7.13;;;6.43;;
5379;SDS011;2713;42.680;23.310;2022-09-02T03:07:30;9.90;;;6.80;;
5379;SDS011;2713;42.680;23.310;2022-09-02T03:09:57;8.90;;;7.27;;
5379;SDS011;2713;42.680;23.310;2022-09-02T03:12:34;7.27;;;6.57;;
5379;SDS011;2713;42.680;23.310;2022-09-02T03:15:05;8.40;;;7.60;;
5379;SDS011;2713;42.680;23.310;2022-09-02T03:17:33;9.50;;;7.67;;
5379;SDS011;2713;42.680;23.310;2022-09-02T03:20:14;8.50;;;7.70;;
5379;SDS011;2713;42.680;23.310;2022-09-02T03:23:10;9.20;;;8.10;;
5379;SDS011;2713;42.680;23.310;2022-09-02T03:25:50;8.53;;;7.73;;
5379;SDS011;2713;42.680;23.310;2022-09-02T03:28:31;8.60;;;7.80;;
5379;SDS011;2713;42.680;23.310;2022-09-02T03:31:00;8.97;;;8.07;;
5379;SDS011;2713;42.680;23.310;2022-09-02T03:33:26;9.30;;;8.30;;
5379;SDS011;2713;42.680;23.310;2022-09-02T03:35:54;9.60;;;8.60;;
5379;SDS011;2713;42.680;23.310;2022-09-02T03:38:24;9.43;;;8.47;;
5379;SDS011;2713;42.680;23.310;2022-09-02T03:40:51;11.23;;;9.07;;
5379;SDS011;2713;42.680;23.310;2022-09-02T03:43:18;10.13;;;8.83;;
5379;SDS011;2713;42.680;23.310;2022-09-02T03:45:45;9.60;;;8.63;;
5379;SDS011;2713;42.680;23.310;2022-09-02T03:48:13;10.23;;;9.13;;
5379;SDS011;2713;42.680;23.310;2022-09-02T03:50:41;10.13;;;9.07;;
5379;SDS011;2713;42.680;23.310;2022-09-02T03:53:15;10.50;;;9.50;;
5379;SDS011;2713;42.680;23.310;2022-09-02T03:55:43;10.10;;;8.80;;
5379;SDS011;2713;42.680;23.310;2022-09-02T03:58:12;11.20;;;9.33;;
5379;SDS011;2713;42.680;23.310;2022-09-02T04:00:39;11.73;;;9.30;;
5379;SDS011;2713;42.680;23.310;2022-09-02T04:03:06;11.17;;;9.40;;
5379;SDS011;2713;42.680;23.310;2022-09-02T04:05:33;10.43;;;9.13;;
5379;SDS011;2713;42.680;23.310;2022-09-02T04:08:00;9.90;;;9.00;;
5379;SDS011;2713;42.680;23.310;2022-09-02T04:10:28;12.03;;;9.47;;
5379;SDS011;2713;42.680;23.310;2022-09-02T04:12:56;11.13;;;10.00;;
5379;SDS011;2713;42.680;23.310;2022-09-02T04:15:24;10.00;;;9.00;;
5379;SDS011;2713;42.680;23.310;2022-09-02T04:17:52;11.43;;;10.27;;
5379;SDS011;2713;42.680;23.310;2022-09-02T04:20:20;10.23;;;9.13;;
5379;SDS011;2713;42.680;23.310;2022-09-02T04:22:47;10.47;;;9.33;;
5379;SDS011;2713;42.680;23.310;2022-09-02T04:25:15;9.90;;;8.90;;
5379;SDS011;2713;42.680;23.310;2022-09-02T04:27:43;11.10;;;9.97;;
5379;SDS011;2713;42.680;23.310;2022-09-02T04:30:12;11.10;;;9.90;;
5379;SDS011;2713;42.680;23.310;2022-09-02T04:32:42;10.20;;;9.13;;
5379;SDS011;2713;42.680;23.310;2022-09-02T04:35:08;10.50;;;9.40;;
5379;SDS011;2713;42.680;23.310;2022-09-02T04:37:36;11.20;;;8.87;;
5379;SDS011;2713;42.680;23.310;2022-09-02T04:40:03;10.87;;;9.77;;
5379;SDS011;2713;42.680;23.310;2022-09-02T04:42:31;10.47;;;9.43;;
5379;SDS011;2713;42.680;23.310;2022-09-02T04:44:59;12.87;;;10.60;;
5379;SDS011;2713;42.680;23.310;2022-09-02T04:47:30;11.20;;;9.70;;
5379;SDS011;2713;42.680;23.310;2022-09-02T04:50:06;15.40;;;10.37;;
5379;SDS011;2713;42.680;23.310;2022-09-02T04:52:35;11.70;;;10.50;;
5379;SDS011;2713;42.680;23.310;2022-09-02T04:55:02;11.70;;;9.87;;
5379;SDS011;2713;42.680;23.310;2022-09-02T04:57:31;11.33;;;10.23;;
5379;SDS011;2713;42.680;23.310;2022-09-02T05:00:00;12.70;;;10.90;;
5379;SDS011;2713;42.680;23.310;2022-09-02T05:02:30;12.57;;;10.70;;
5379;SDS011;2713;42.680;23.310;2022-09-02T05:04:58;11.37;;;10.20;;
5379;SDS011;2713;42.680;23.310;2022-09-02T05:07:28;12.53;;;11.13;;
5379;SDS011;2713;42.680;23.310;2022-09-02T05:09:55;14.83;;;12.97;;
5379;SDS011;2713;42.680;23.310;2022-09-02T05:12:23;11.83;;;10.13;;
5379;SDS011;2713;42.680;23.310;2022-09-02T05:14:55;11.27;;;10.17;;
5379;SDS011;2713;42.680;23.310;2022-09-02T05:17:26;13.17;;;10.50;;
5379;SDS011;2713;42.680;23.310;2022-09-02T05:19:58;11.67;;;10.43;;
5379;SDS011;2713;42.680;23.310;2022-09-02T05:22:25;11.57;;;10.27;;
5379;SDS011;2713;42.680;23.310;2022-09-02T05:24:55;12.27;;;11.00;;
5379;SDS011;2713;42.680;23.310;2022-09-02T05:27:22;11.50;;;10.30;;
5379;SDS011;2713;42.680;23.310;2022-09-02T05:29:49;16.37;;;11.10;;
5379;SDS011;2713;42.680;23.310;2022-09-02T05:32:19;12.93;;;10.37;;
5379;SDS011;2713;42.680;23.310;2022-09-02T05:34:48;15.03;;;11.10;;
5379;SDS011;2713;42.680;23.310;2022-09-02T05:37:17;12.43;;;11.10;;
5379;SDS011;2713;42.680;23.310;2022-09-02T05:39:45;12.40;;;11.03;;
5379;SDS011;2713;42.680;23.310;2022-09-02T05:42:12;14.03;;;12.27;;
5379;SDS011;2713;42.680;23.310;2022-09-02T05:44:43;11.60;;;10.37;;
5379;SDS011;2713;42.680;23.310;2022-09-02T05:47:13;12.80;;;10.07;;
5379;SDS011;2713;42.680;23.310;2022-09-02T05:49:41;12.97;;;10.60;;
5379;SDS011;2713;42.680;23.310;2022-09-02T05:52:11;14.03;;;10.90;;
5379;SDS011;2713;42.680;23.310;2022-09-02T05:54:46;12.17;;;10.83;;
5379;SDS011;2713;42.680;23.310;2022-09-02T05:57:16;14.10;;;10.43;;
5379;SDS011;2713;42.680;23.310;2022-09-02T06:00:10;13.13;;;10.57;;
5379;SDS011;2713;42.680;23.310;2022-09-02T06:02:41;12.80;;;10.63;;
5379;SDS011;2713;42.680;23.310;2022-09-02T06:05:20;15.07;;;11.90;;
5379;SDS011;2713;42.680;23.310;2022-09-02T06:07:54;13.23;;;10.60;;
5379;SDS011;2713;42.680;23.310;2022-09-02T06:10:23;13.43;;;12.03;;
5379;SDS011;2713;42.680;23.310;2022-09-02T06:12:51;12.90;;;10.27;;
5379;SDS011;2713;42.680;23.310;2022-09-02T06:15:20;15.07;;;10.73;;
5379;SDS011;2713;42.680;23.310;2022-09-02T06:17:48;14.80;;;10.37;;
5379;SDS011;2713;42.680;23.310;2022-09-02T06:20:15;13.40;;;9.93;;
5379;SDS011;2713;42.680;23.310;2022-09-02T06:22:42;14.33;;;11.70;;
5379;SDS011;2713;42.680;23.310;2022-09-02T06:25:10;12.80;;;11.37;;
5379;SDS011;2713;42.680;23.310;2022-09-02T06:27:38;14.57;;;10.97;;
5379;SDS011;2713;42.680;23.310;2022-09-02T06:30:06;14.07;;;11.70;;
5379;SDS011;2713;42.680;23.310;2022-09-02T06:32:34;12.40;;;10.73;;
5379;SDS011;2713;42.680;23.310;2022-09-02T06:35:06;13.00;;;11.07;;
5379;SDS011;2713;42.680;23.310;2022-09-02T06:37:36;12.77;;;11.40;;
5379;SDS011;2713;42.680;23.310;2022-09-02T06:40:03;14.53;;;12.43;;
5379;SDS011;2713;42.680;23.310;2022-09-02T06:42:31;15.40;;;12.77;;
5379;SDS011;2713;42.680;23.310;2022-09-02T06:45:26;12.83;;;11.30;;
5379;SDS011;2713;42.680;23.310;2022-09-02T06:47:56;13.50;;;12.10;;
5379;SDS011;2713;42.680;23.310;2022-09-02T06:50:24;12.93;;;11.60;;
5379;SDS011;2713;42.680;23.310;2022-09-02T06:52:52;13.43;;;11.00;;
5379;SDS011;2713;42.680;23.310;2022-09-02T06:55:19;11.40;;;10.20;;
5379;SDS011;2713;42.680;23.310;2022-09-02T06:57:46;12.50;;;10.43;;
5379;SDS011;2713;42.680;23.310;2022-09-02T07:00:14;13.90;;;12.40;;
5379;SDS011;2713;42.680;23.310;2022-09-02T07:02:43;14.20;;;11.77;;
5379;SDS011;2713;42.680;23.310;2022-09-02T07:05:32;12.10;;;10.90;;
5379;SDS011;2713;42.680;23.310;2022-09-02T07:07:58;13.33;;;11.37;;
5379;SDS011;2713;42.680;23.310;2022-09-02T07:10:25;12.63;;;11.43;;
5379;SDS011;2713;42.680;23.310;2022-09-02T07:12:54;12.23;;;10.93;;
5379;SDS011;2713;42.680;23.310;2022-09-02T07:15:20;11.80;;;10.57;;
5379;SDS011;2713;42.680;23.310;2022-09-02T07:17:49;13.37;;;11.33;;
5379;SDS011;2713;42.680;23.310;2022-09-02T07:20:25;13.53;;;10.23;;
5379;SDS011;2713;42.680;23.310;2022-09-02T07:22:56;12.70;;;11.40;;
5379;SDS011;2713;42.680;23.310;2022-09-02T07:25:26;12.50;;;11.20;;
5379;SDS011;2713;42.680;23.310;2022-09-02T07:27:53;11.73;;;10.67;;
5379;SDS011;2713;42.680;23.310;2022-09-02T07:30:21;10.77;;;9.63;;
5379;SDS011;2713;42.680;23.310;2022-09-02T07:32:56;12.63;;;11.33;;
5379;SDS011;2713;42.680;23.310;2022-09-02T07:35:25;11.50;;;10.13;;
5379;SDS011;2713;42.680;23.310;2022-09-02T07:37:54;12.43;;;10.20;;
5379;SDS011;2713;42.680;23.310;2022-09-02T07:40:21;11.77;;;9.33;;
5379;SDS011;2713;42.680;23.310;2022-09-02T07:42:49;10.20;;;9.20;;
5379;SDS011;2713;42.680;23.310;2022-09-02T07:45:17;13.50;;;11.40;;
5379;SDS011;2713;42.680;23.310;2022-09-02T07:47:45;13.43;;;10.60;;
5379;SDS011;2713;42.680;23.310;2022-09-02T07:50:15;12.60;;;10.93;;
5379;SDS011;2713;42.680;23.310;2022-09-02T07:52:44;12.13;;;10.60;;
5379;SDS011;2713;42.680;23.310;2022-09-02T07:55:11;10.07;;;8.93;;
5379;SDS011;2713;42.680;23.310;2022-09-02T07:57:38;11.77;;;10.00;;
5379;SDS011;2713;42.680;23.310;2022-09-02T08:00:07;11.23;;;9.97;;
5379;SDS011;2713;42.680;23.310;2022-09-02T08:02:39;12.67;;;9.83;;
5379;SDS011;2713;42.680;23.310;2022-09-02T08:05:07;15.43;;;10.30;;
5379;SDS011;2713;42.680;23.310;2022-09-02T08:07:36;13.07;;;10.63;;
5379;SDS011;2713;42.680;23.310;2022-09-02T08:10:03;12.33;;;10.53;;
5379;SDS011;2713;42.680;23.310;2022-09-02T08:12:34;12.40;;;10.30;;
5379;SDS011;2713;42.680;23.310;2022-09-02T08:15:01;12.40;;;11.10;;
5379;SDS011;2713;42.680;23.310;2022-09-02T08:17:28;11.87;;;10.30;;
5379;SDS011;2713;42.680;23.310;2022-09-02T08:19:54;11.83;;;10.33;;
5379;SDS011;2713;42.680;23.310;2022-09-02T08:22:21;12.27;;;10.40;;
5379;SDS011;2713;42.680;23.310;2022-09-02T08:24:50;12.73;;;11.17;;
5379;SDS011;2713;42.680;23.310;2022-09-02T08:27:17;14.10;;;10.63;;
5379;SDS011;2713;42.680;23.310;2022-09-02T08:29:44;10.70;;;9.60;;
5379;SDS011;2713;42.680;23.310;2022-09-02T08:32:11;10.90;;;9.80;;
5379;SDS011;2713;42.680;23.310;2022-09-02T08:34:37;11.00;;;9.63;;
5379;SDS011;2713;42.680;23.310;2022-09-02T08:37:04;10.80;;;9.70;;
5379;SDS011;2713;42.680;23.310;2022-09-02T08:39:31;11.83;;;10.63;;
5379;SDS011;2713;42.680;23.310;2022-09-02T08:42:03;15.10;;;10.70;;
5379;SDS011;2713;42.680;23.310;2022-09-02T08:44:35;12.70;;;10.90;;
5379;SDS011;2713;42.680;23.310;2022-09-02T08:47:05;11.07;;;9.97;;
5379;SDS011;2713;42.680;23.310;2022-09-02T08:49:39;10.70;;;9.60;;
5379;SDS011;2713;42.680;23.310;2022-09-02T08:52:09;11.13;;;9.60;;
5379;SDS011;2713;42.680;23.310;2022-09-02T08:54:44;11.97;;;9.60;;
5379;SDS011;2713;42.680;23.310;2022-09-02T08:57:17;10.23;;;9.13;;
5379;SDS011;2713;42.680;23.310;2022-09-02T08:59:44;10.90;;;9.80;;
5379;SDS011;2713;42.680;23.310;2022-09-02T09:02:15;11.53;;;10.37;;
5379;SDS011;2713;42.680;23.310;2022-09-02T09:04:57;10.73;;;9.47;;
5379;SDS011;2713;42.680;23.310;2022-09-02T09:07:46;10.20;;;9.10;;
5379;SDS011;2713;42.680;23.310;2022-09-02T09:10:27;12.07;;;10.27;;
5379;SDS011;2713;42.680;23.310;2022-09-02T09:13:10;11.33;;;9.43;;
5379;SDS011;2713;42.680;23.310;2022-09-02T09:15:47;12.60;;;10.03;;
5379;SDS011;2713;42.680;23.310;2022-09-02T09:18:23;11.80;;;10.20;;
5379;SDS011;2713;42.680;23.310;2022-09-02T09:20:59;11.80;;;10.60;;
5379;SDS011;2713;42.680;23.310;2022-09-02T09:23:27;12.80;;;10.50;;
5379;SDS011;2713;42.680;23.310;2022-09-02T09:25:59;12.27;;;10.97;;
5379;SDS011;2713;42.680;23.310;2022-09-02T09:28:37;12.10;;;10.80;;
5379;SDS011;2713;42.680;23.310;2022-09-02T09:31:08;13.90;;;12.30;;
5379;SDS011;2713;42.680;23.310;2022-09-02T09:33:36;12.93;;;11.60;;
5379;SDS011;2713;42.680;23.310;2022-09-02T09:36:05;13.53;;;12.13;;
5379;SDS011;2713;42.680;23.310;2022-09-02T09:38:35;13.33;;;11.93;;
5379;SDS011;2713;42.680;23.310;2022-09-02T09:43:55;13.17;;;11.80;;
5379;SDS011;2713;42.680;23.310;2022-09-02T09:46:26;13.00;;;11.70;;
5379;SDS011;2713;42.680;23.310;2022-09-02T09:48:54;11.47;;;10.23;;
5379;SDS011;2713;42.680;23.310;2022-09-02T09:51:21;12.60;;;11.40;;
5379;SDS011;2713;42.680;23.310;2022-09-02T09:53:49;13.40;;;11.60;;
5379;SDS011;2713;42.680;23.310;2022-09-02T09:56:22;15.63;;;12.97;;
5379;SDS011;2713;42.680;23.310;2022-09-02T09:58:52;13.97;;;11.87;;
5379;SDS011;2713;42.680;23.310;2022-09-02T10:01:21;16.23;;;13.67;;
5379;SDS011;2713;42.680;23.310;2022-09-02T10:03:50;15.53;;;13.60;;
5379;SDS011;2713;42.680;23.310;2022-09-02T10:06:21;18.23;;;14.30;;
5379;SDS011;2713;42.680;23.310;2022-09-02T10:08:50;15.27;;;13.50;;
5379;SDS011;2713;42.680;23.310;2022-09-02T10:11:20;16.07;;;14.00;;
5379;SDS011;2713;42.680;23.310;2022-09-02T10:13:49;15.43;;;13.13;;
5379;SDS011;2713;42.680;23.310;2022-09-02T10:16:24;13.53;;;12.13;;
5379;SDS011;2713;42.680;23.310;2022-09-02T10:19:00;16.43;;;13.87;;
5379;SDS011;2713;42.680;23.310;2022-09-02T10:21:48;13.83;;;12.40;;
5379;SDS011;2713;42.680;23.310;2022-09-02T10:24:35;13.70;;;12.30;;
5379;SDS011;2713;42.680;23.310;2022-09-02T10:27:14;15.17;;;13.53;;
5379;SDS011;2713;42.680;23.310;2022-09-02T10:29:47;15.47;;;12.30;;
5379;SDS011;2713;42.680;23.310;2022-09-02T10:35:14;14.67;;;13.00;;
5379;SDS011;2713;42.680;23.310;2022-09-02T10:37:55;15.00;;;12.70;;
5379;SDS011;2713;42.680;23.310;2022-09-02T10:40:37;16.13;;;12.30;;
5379;SDS011;2713;42.680;23.310;2022-09-02T10:43:19;14.80;;;13.17;;
5379;SDS011;2713;42.680;23.310;2022-09-02T10:45:55;15.97;;;12.30;;
5379;SDS011;2713;42.680;23.310;2022-09-02T10:48:31;13.90;;;12.30;;
5379;SDS011;2713;42.680;23.310;2022-09-02T10:51:09;15.30;;;13.20;;
5379;SDS011;2713;42.680;23.310;2022-09-02T10:53:50;14.20;;;12.70;;
5379;SDS011;2713;42.680;23.310;2022-09-02T10:56:35;16.60;;;13.03;;
5379;SDS011;2713;42.680;23.310;2022-09-02T10:59:07;13.40;;;12.00;;
5379;SDS011;2713;42.680;23.310;2022-09-02T11:01:40;16.70;;;13.93;;
5379;SDS011;2713;42.680;23.310;2022-09-02T11:04:15;17.00;;;13.27;;
5379;SDS011;2713;42.680;23.310;2022-09-02T11:06:46;13.13;;;11.87;;
5379;SDS011;2713;42.680;23.310;2022-09-02T11:09:19;15.33;;;13.73;;
5379;SDS011;2713;42.680;23.310;2022-09-02T11:11:56;20.77;;;13.73;;
5379;SDS011;2713;42.680;23.310;2022-09-02T11:14:29;16.20;;;14.20;;
5379;SDS011;2713;42.680;23.310;2022-09-02T11:16:59;16.03;;;14.07;;
5379;SDS011;2713;42.680;23.310;2022-09-02T11:19:36;15.33;;;13.73;;
5379;SDS011;2713;42.680;23.310;2022-09-02T11:22:11;16.90;;;14.80;;
5379;SDS011;2713;42.680;23.310;2022-09-02T11:24:46;15.00;;;13.33;;
5379;SDS011;2713;42.680;23.310;2022-09-02T11:27:22;19.37;;;15.43;;
5379;SDS011;2713;42.680;23.310;2022-09-02T11:29:59;18.13;;;14.20;;
5379;SDS011;2713;42.680;23.310;2022-09-02T11:32:31;16.10;;;13.60;;
5379;SDS011;2713;42.680;23.310;2022-09-02T11:35:06;15.73;;;14.13;;
5379;SDS011;2713;42.680;23.310;2022-09-02T11:37:38;15.10;;;13.57;;
5379;SDS011;2713;42.680;23.310;2022-09-02T11:40:11;16.17;;;14.00;;
5379;SDS011;2713;42.680;23.310;2022-09-02T11:42:49;15.97;;;13.60;;
5379;SDS011;2713;42.680;23.310;2022-09-02T11:45:36;14.10;;;12.60;;
5379;SDS011;2713;42.680;23.310;2022-09-02T11:48:20;15.37;;;13.30;;
5379;SDS011;2713;42.680;23.310;2022-09-02T11:51:06;21.73;;;19.40;;
5379;SDS011;2713;42.680;23.310;2022-09-02T11:53:51;18.80;;;14.07;;
5379;SDS011;2713;42.680;23.310;2022-09-02T11:56:19;18.13;;;14.03;;
5379;SDS011;2713;42.680;23.310;2022-09-02T11:58:49;18.83;;;14.00;;
5379;SDS011;2713;42.680;23.310;2022-09-02T12:01:21;15.53;;;13.87;;
5379;SDS011;2713;42.680;23.310;2022-09-02T12:03:55;18.47;;;14.40;;
5379;SDS011;2713;42.680;23.310;2022-09-02T12:06:27;16.87;;;15.07;;
5379;SDS011;2713;42.680;23.310;2022-09-02T12:08:58;16.70;;;14.80;;
5379;SDS011;2713;42.680;23.310;2022-09-02T12:11:33;19.77;;;14.70;;
5379;SDS011;2713;42.680;23.310;2022-09-02T12:14:06;15.27;;;13.67;;
5379;SDS011;2713;42.680;23.310;2022-09-02T12:16:42;18.70;;;14.97;;
5379;SDS011;2713;42.680;23.310;2022-09-02T12:19:22;16.90;;;15.10;;
5379;SDS011;2713;42.680;23.310;2022-09-02T12:24:51;16.17;;;14.47;;
5379;SDS011;2713;42.680;23.310;2022-09-02T12:27:23;15.90;;;14.17;;
5379;SDS011;2713;42.680;23.310;2022-09-02T12:29:52;16.90;;;14.57;;
5379;SDS011;2713;42.680;23.310;2022-09-02T12:35:30;19.17;;;14.70;;
5379;SDS011;2713;42.680;23.310;2022-09-02T12:40:53;21.70;;;16.20;;
5379;SDS011;2713;42.680;23.310;2022-09-02T12:43:30;18.47;;;16.40;;
5379;SDS011;2713;42.680;23.310;2022-09-02T12:46:03;18.43;;;15.87;;
5379;SDS011;2713;42.680;23.310;2022-09-02T12:48:43;19.20;;;15.40;;
5379;SDS011;2713;42.680;23.310;2022-09-02T12:54:24;17.43;;;15.00;;
5379;SDS011;2713;42.680;23.310;2022-09-02T12:56:57;18.20;;;15.63;;
5379;SDS011;2713;42.680;23.310;2022-09-02T12:59:28;24.67;;;18.03;;
5379;SDS011;2713;42.680;23.310;2022-09-02T13:02:00;22.93;;;16.07;;
5379;SDS011;2713;42.680;23.310;2022-09-02T13:04:37;18.30;;;16.37;;
5379;SDS011;2713;42.680;23.310;2022-09-02T13:13:16;20.20;;;16.43;;
5379;SDS011;2713;42.680;23.310;2022-09-02T13:16:06;21.20;;;17.50;;
5379;SDS011;2713;42.680;23.310;2022-09-02T13:18:54;20.30;;;17.10;;
5379;SDS011;2713;42.680;23.310;2022-09-02T13:21:48;25.97;;;18.47;;
5379;SDS011;2713;42.680;23.310;2022-09-02T13:24:49;21.87;;;17.33;;
5379;SDS011;2713;42.680;23.310;2022-09-02T13:27:40;19.67;;;17.07;;
5379;SDS011;2713;42.680;23.310;2022-09-02T13:30:25;19.63;;;16.40;;
5379;SDS011;2713;42.680;23.310;2022-09-02T13:33:07;20.03;;;16.90;;
5379;SDS011;2713;42.680;23.310;2022-09-02T13:35:37;20.70;;;16.80;;
5379;SDS011;2713;42.680;23.310;2022-09-02T13:38:07;19.23;;;16.83;;
5379;SDS011;2713;42.680;23.310;2022-09-02T13:40:36;20.70;;;16.20;;
5379;SDS011;2713;42.680;23.310;2022-09-02T13:43:15;22.30;;;17.87;;
5379;SDS011;2713;42.680;23.310;2022-09-02T13:45:45;21.93;;;18.83;;
5379;SDS011;2713;42.680;23.310;2022-09-02T13:48:14;20.70;;;18.43;;
5379;SDS011;2713;42.680;23.310;2022-09-02T13:50:43;22.90;;;18.00;;
5379;SDS011;2713;42.680;23.310;2022-09-02T13:53:13;24.33;;;18.23;;
5379;SDS011;2713;42.680;23.310;2022-09-02T13:55:47;27.10;;;19.20;;
5379;SDS011;2713;42.680;23.310;2022-09-02T13:58:20;25.27;;;19.43;;
5379;SDS011;2713;42.680;23.310;2022-09-02T14:01:01;25.93;;;20.10;;
5379;SDS011;2713;42.680;23.310;2022-09-02T14:03:44;26.63;;;19.70;;
5379;SDS011;2713;42.680;23.310;2022-09-02T14:06:14;26.27;;;21.03;;
5379;SDS011;2713;42.680;23.310;2022-09-02T14:08:42;27.63;;;19.47;;
5379;SDS011;2713;42.680;23.310;2022-09-02T14:11:12;24.83;;;20.53;;
5379;SDS011;2713;42.680;23.310;2022-09-02T14:13:41;30.00;;;21.40;;
5379;SDS011;2713;42.680;23.310;2022-09-02T14:16:25;26.30;;;20.57;;
5379;SDS011;2713;42.680;23.310;2022-09-02T14:19:04;31.30;;;21.63;;
5379;SDS011;2713;42.680;23.310;2022-09-02T14:21:32;28.70;;;20.63;;
5379;SDS011;2713;42.680;23.310;2022-09-02T14:23:59;27.70;;;21.27;;
5379;SDS011;2713;42.680;23.310;2022-09-02T14:26:32;36.80;;;24.87;;
5379;SDS011;2713;42.680;23.310;2022-09-02T14:29:01;33.10;;;24.47;;
5379;SDS011;2713;42.680;23.310;2022-09-02T14:31:32;36.97;;;22.77;;
5379;SDS011;2713;42.680;23.310;2022-09-02T14:34:02;33.23;;;22.37;;
5379;SDS011;2713;42.680;23.310;2022-09-02T14:36:31;29.47;;;22.00;;
5379;SDS011;2713;42.680;23.310;2022-09-02T14:39:10;32.07;;;21.73;;
5379;SDS011;2713;42.680;23.310;2022-09-02T14:41:43;31.07;;;22.77;;
5379;SDS011;2713;42.680;23.310;2022-09-02T14:44:14;29.10;;;21.87;;
5379;SDS011;2713;42.680;23.310;2022-09-02T14:46:46;28.90;;;20.93;;
5379;SDS011;2713;42.680;23.310;2022-09-02T14:49:19;27.10;;;19.13;;
5379;SDS011;2713;42.680;23.310;2022-09-02T14:51:49;20.30;;;16.00;;
5379;SDS011;2713;42.680;23.310;2022-09-02T14:54:34;18.63;;;16.63;;
5379;SDS011;2713;42.680;23.310;2022-09-02T14:57:03;20.43;;;16.20;;
5379;SDS011;2713;42.680;23.310;2022-09-02T14:59:31;21.93;;;16.77;;
5379;SDS011;2713;42.680;23.310;2022-09-02T15:02:00;21.13;;;16.07;;
5379;SDS011;2713;42.680;23.310;2022-09-02T15:04:27;19.23;;;14.87;;
5379;SDS011;2713;42.680;23.310;2022-09-02T15:06:53;21.20;;;17.17;;
5379;SDS011;2713;42.680;23.310;2022-09-02T15:09:20;19.90;;;17.07;;
5379;SDS011;2713;42.680;23.310;2022-09-02T15:11:48;25.37;;;17.30;;
5379;SDS011;2713;42.680;23.310;2022-09-02T15:14:18;21.90;;;15.57;;
5379;SDS011;2713;42.680;23.310;2022-09-02T15:16:46;17.33;;;14.90;;
5379;SDS011;2713;42.680;23.310;2022-09-02T15:19:14;15.70;;;13.40;;
5379;SDS011;2713;42.680;23.310;2022-09-02T15:21:41;20.67;;;16.43;;
5379;SDS011;2713;42.680;23.310;2022-09-02T15:24:08;21.03;;;17.00;;
5379;SDS011;2713;42.680;23.310;2022-09-02T15:26:35;21.40;;;15.93;;
5379;SDS011;2713;42.680;23.310;2022-09-02T15:29:02;17.70;;;14.67;;